sensor_id;sensor_type;location;lat;lon;timestamp;pressure;altitude;pressure_sealevel;temperature
69007;BMP180;56061;51.748;19.620;2022-09-29T00:01:00;97353.60;;;8.00
69007;BMP180;56061;51.748;19.620;2022-09-29T00:03:27;97354.80;;;7.90
69007;BMP180;56061;51.748;19.620;2022-09-29T00:05:55;97356.60;;;7.90
69007;BMP180;56061;51.748;19.620;2022-09-29T00:08:27;97362.20;;;7.90
69007;BMP180;56061;51.748;19.620;2022-09-29T00:10:56;97361.20;;;7.80
69007;BMP180;56061;51.748;19.620;2022-09-29T00:13:22;97364.40;;;7.80
69007;BMP180;56061;51.748;19.620;2022-09-29T00:16:00;97367.80;;;7.62
69007;BMP180;56061;51.748;19.620;2022-09-29T00:18:30;97370.00;;;7.56
69007;BMP180;56061;51.748;19.620;2022-09-29T00:20:58;97370.80;;;7.60
69007;BMP180;56061;51.748;19.620;2022-09-29T00:23:27;97367.00;;;7.60
69007;BMP180;56061;51.748;19.620;2022-09-29T00:26:23;97361.20;;;7.60
69007;BMP180;56061;51.748;19.620;2022-09-29T00:28:53;97365.80;;;7.60
69007;BMP180;56061;51.748;19.620;2022-09-29T00:31:29;97367.20;;;7.60
69007;BMP180;56061;51.748;19.620;2022-09-29T00:33:57;97373.20;;;7.60
69007;BMP180;56061;51.748;19.620;2022-09-29T00:36:24;97370.20;;;7.60
69007;BMP180;56061;51.748;19.620;2022-09-29T00:38:56;97377.20;;;7.50
69007;BMP180;56061;51.748;19.620;2022-09-29T00:41:27;97378.80;;;7.40
69007;BMP180;56061;51.748;19.620;2022-09-29T00:46:45;97379.00;;;7.50
69007;BMP180;56061;51.748;19.620;2022-09-29T00:52:01;97392.20;;;7.40
69007;BMP180;56061;51.748;19.620;2022-09-29T00:54:36;97394.40;;;7.30
69007;BMP180;56061;51.748;19.620;2022-09-29T00:57:07;97403.20;;;7.30
69007;BMP180;56061;51.748;19.620;2022-09-29T00:59:46;97405.60;;;7.34
69007;BMP180;56061;51.748;19.620;2022-09-29T01:02:16;97408.20;;;7.30
69007;BMP180;56061;51.748;19.620;2022-09-29T01:04:46;97406.00;;;7.30
69007;BMP180;56061;51.748;19.620;2022-09-29T01:07:13;97401.00;;;7.40
69007;BMP180;56061;51.748;19.620;2022-09-29T01:09:42;97404.00;;;7.40
69007;BMP180;56061;51.748;19.620;2022-09-29T01:12:09;97405.40;;;7.50
69007;BMP180;56061;51.748;19.620;2022-09-29T01:14:37;97404.40;;;7.50
69007;BMP180;56061;51.748;19.620;2022-09-29T01:17:05;97394.60;;;7.50
69007;BMP180;56061;51.748;19.620;2022-09-29T01:20:07;97396.60;;;7.50
69007;BMP180;56061;51.748;19.620;2022-09-29T01:23:16;97400.60;;;7.42
69007;BMP180;56061;51.748;19.620;2022-09-29T01:26:29;97404.60;;;7.40
69007;BMP180;56061;51.748;19.620;2022-09-29T01:35:17;97428.40;;;7.50
69007;BMP180;56061;51.748;19.620;2022-09-29T01:38:12;97418.60;;;7.50
69007;BMP180;56061;51.748;19.620;2022-09-29T01:40:53;97423.40;;;7.50
69007;BMP180;56061;51.748;19.620;2022-09-29T01:43:40;97434.20;;;7.50
69007;BMP180;56061;51.748;19.620;2022-09-29T01:46:16;97444.60;;;7.60
69007;BMP180;56061;51.748;19.620;2022-09-29T01:48:49;97434.60;;;7.52
69007;BMP180;56061;51.748;19.620;2022-09-29T01:51:24;97431.20;;;7.50
69007;BMP180;56061;51.748;19.620;2022-09-29T01:53:59;97431.80;;;7.50
69007;BMP180;56061;51.748;19.620;2022-09-29T01:56:36;97429.00;;;7.50
69007;BMP180;56061;51.748;19.620;2022-09-29T01:59:14;97427.40;;;7.50
69007;BMP180;56061;51.748;19.620;2022-09-29T02:01:46;97430.60;;;7.50
69007;BMP180;56061;51.748;19.620;2022-09-29T02:04:31;97433.00;;;7.50
69007;BMP180;56061;51.748;19.620;2022-09-29T02:07:07;97440.00;;;7.50
69007;BMP180;56061;51.748;19.620;2022-09-29T02:09:42;97440.40;;;7.50
69007;BMP180;56061;51.748;19.620;2022-09-29T02:12:17;97441.80;;;7.50
69007;BMP180;56061;51.748;19.620;2022-09-29T02:14:47;97450.40;;;7.50
69007;BMP180;56061;51.748;19.620;2022-09-29T02:17:21;97456.40;;;7.40
69007;BMP180;56061;51.748;19.620;2022-09-29T02:19:51;97454.20;;;7.40
69007;BMP180;56061;51.748;19.620;2022-09-29T02:22:18;97450.00;;;7.30
69007;BMP180;56061;51.748;19.620;2022-09-29T02:24:45;97452.00;;;7.30
69007;BMP180;56061;51.748;19.620;2022-09-29T02:27:13;97451.00;;;7.30
69007;BMP180;56061;51.748;19.620;2022-09-29T02:29:40;97453.00;;;7.30
69007;BMP180;56061;51.748;19.620;2022-09-29T02:32:08;97444.00;;;7.38
69007;BMP180;56061;51.748;19.620;2022-09-29T02:34:39;97448.20;;;7.30
69007;BMP180;56061;51.748;19.620;2022-09-29T02:37:25;97457.80;;;7.30
69007;BMP180;56061;51.748;19.620;2022-09-29T02:40:17;97462.60;;;7.32
69007;BMP180;56061;51.748;19.620;2022-09-29T02:43:05;97473.60;;;7.28
69007;BMP180;56061;51.748;19.620;2022-09-29T02:51:19;97481.20;;;7.30
69007;BMP180;56061;51.748;19.620;2022-09-29T02:54:09;97483.00;;;7.40
69007;BMP180;56061;51.748;19.620;2022-09-29T02:57:05;97478.20;;;7.48
69007;BMP180;56061;51.748;19.620;2022-09-29T02:59:51;97485.00;;;7.48
69007;BMP180;56061;51.748;19.620;2022-09-29T03:02:26;97486.60;;;7.44
69007;BMP180;56061;51.748;19.620;2022-09-29T03:04:53;97482.60;;;7.50
69007;BMP180;56061;51.748;19.620;2022-09-29T03:07:20;97478.20;;;7.48
69007;BMP180;56061;51.748;19.620;2022-09-29T03:09:46;97482.80;;;7.50
69007;BMP180;56061;51.748;19.620;2022-09-29T03:12:13;97484.40;;;7.50
69007;BMP180;56061;51.748;19.620;2022-09-29T03:14:40;97483.40;;;7.50
69007;BMP180;56061;51.748;19.620;2022-09-29T03:17:06;97489.60;;;7.40
69007;BMP180;56061;51.748;19.620;2022-09-29T03:19:33;97485.80;;;7.40
69007;BMP180;56061;51.748;19.620;2022-09-29T03:21:59;97489.60;;;7.40
69007;BMP180;56061;51.748;19.620;2022-09-29T03:24:26;97495.00;;;7.40
69007;BMP180;56061;51.748;19.620;2022-09-29T03:26:52;97495.20;;;7.50
69007;BMP180;56061;51.748;19.620;2022-09-29T03:29:19;97490.40;;;7.58
69007;BMP180;56061;51.748;19.620;2022-09-29T03:31:45;97493.20;;;7.60
69007;BMP180;56061;51.748;19.620;2022-09-29T03:34:12;97487.40;;;7.60
69007;BMP180;56061;51.748;19.620;2022-09-29T03:36:38;97497.20;;;7.60
69007;BMP180;56061;51.748;19.620;2022-09-29T03:39:07;97498.80;;;7.54
69007;BMP180;56061;51.748;19.620;2022-09-29T03:41:34;97501.60;;;7.60
69007;BMP180;56061;51.748;19.620;2022-09-29T03:44:00;97505.60;;;7.60
69007;BMP180;56061;51.748;19.620;2022-09-29T03:46:27;97504.80;;;7.70
69007;BMP180;56061;51.748;19.620;2022-09-29T03:48:54;97510.40;;;7.74
69007;BMP180;56061;51.748;19.620;2022-09-29T03:51:20;97509.40;;;7.80
69007;BMP180;56061;51.748;19.620;2022-09-29T03:53:46;97508.40;;;7.80
69007;BMP180;56061;51.748;19.620;2022-09-29T03:56:13;97498.80;;;7.90
69007;BMP180;56061;51.748;19.620;2022-09-29T03:58:40;97508.00;;;7.80
69007;BMP180;56061;51.748;19.620;2022-09-29T04:01:07;97510.60;;;7.70
69007;BMP180;56061;51.748;19.620;2022-09-29T04:03:34;97517.00;;;7.60
69007;BMP180;56061;51.748;19.620;2022-09-29T04:06:00;97519.00;;;7.60
69007;BMP180;56061;51.748;19.620;2022-09-29T04:08:27;97524.40;;;7.60
69007;BMP180;56061;51.748;19.620;2022-09-29T04:10:53;97522.20;;;7.60
69007;BMP180;56061;51.748;19.620;2022-09-29T04:13:20;97522.80;;;7.60
69007;BMP180;56061;51.748;19.620;2022-09-29T04:15:49;97518.20;;;7.60
69007;BMP180;56061;51.748;19.620;2022-09-29T04:18:16;97520.40;;;7.60
69007;BMP180;56061;51.748;19.620;2022-09-29T04:20:43;97518.20;;;7.70
69007;BMP180;56061;51.748;19.620;2022-09-29T04:23:09;97520.60;;;7.60
69007;BMP180;56061;51.748;19.620;2022-09-29T04:25:35;97515.20;;;7.70
69007;BMP180;56061;51.748;19.620;2022-09-29T04:28:02;97519.40;;;7.60
69007;BMP180;56061;51.748;19.620;2022-09-29T04:30:29;97520.80;;;7.50
69007;BMP180;56061;51.748;19.620;2022-09-29T04:32:55;97525.80;;;7.40
69007;BMP180;56061;51.748;19.620;2022-09-29T04:35:21;97534.20;;;7.40
69007;BMP180;56061;51.748;19.620;2022-09-29T04:37:48;97526.00;;;7.50
69007;BMP180;56061;51.748;19.620;2022-09-29T04:40:15;97531.00;;;7.52
69007;BMP180;56061;51.748;19.620;2022-09-29T04:42:42;97531.60;;;7.60
69007;BMP180;56061;51.748;19.620;2022-09-29T04:45:09;97531.20;;;7.50
69007;BMP180;56061;51.748;19.620;2022-09-29T04:47:36;97540.00;;;7.40
69007;BMP180;56061;51.748;19.620;2022-09-29T04:50:02;97542.00;;;7.40
69007;BMP180;56061;51.748;19.620;2022-09-29T04:52:29;97546.00;;;7.50
69007;BMP180;56061;51.748;19.620;2022-09-29T04:54:55;97551.40;;;7.44
69007;BMP180;56061;51.748;19.620;2022-09-29T04:57:22;97551.60;;;7.40
69007;BMP180;56061;51.748;19.620;2022-09-29T04:59:48;97557.40;;;7.40
69007;BMP180;56061;51.748;19.620;2022-09-29T05:02:18;97564.00;;;7.50
69007;BMP180;56061;51.748;19.620;2022-09-29T05:04:45;97561.80;;;7.48
69007;BMP180;56061;51.748;19.620;2022-09-29T05:07:13;97563.80;;;7.40
69007;BMP180;56061;51.748;19.620;2022-09-29T05:09:40;97560.40;;;7.44
69007;BMP180;56061;51.748;19.620;2022-09-29T05:12:06;97556.60;;;7.48
69007;BMP180;56061;51.748;19.620;2022-09-29T05:14:33;97559.20;;;7.50
69007;BMP180;56061;51.748;19.620;2022-09-29T05:17:00;97558.80;;;7.60
69007;BMP180;56061;51.748;19.620;2022-09-29T05:19:27;97555.20;;;7.60
69007;BMP180;56061;51.748;19.620;2022-09-29T05:21:53;97561.40;;;7.70
69007;BMP180;56061;51.748;19.620;2022-09-29T05:24:20;97566.20;;;7.74
69007;BMP180;56061;51.748;19.620;2022-09-29T05:26:46;97568.80;;;7.80
69007;BMP180;56061;51.748;19.620;2022-09-29T05:29:12;97570.60;;;7.80
69007;BMP180;56061;51.748;19.620;2022-09-29T05:31:39;97576.00;;;7.80
69007;BMP180;56061;51.748;19.620;2022-09-29T05:34:06;97578.40;;;7.90
69007;BMP180;56061;51.748;19.620;2022-09-29T05:36:32;97582.60;;;7.82
69007;BMP180;56061;51.748;19.620;2022-09-29T05:38:59;97583.60;;;7.80
69007;BMP180;56061;51.748;19.620;2022-09-29T05:41:25;97590.00;;;7.90
69007;BMP180;56061;51.748;19.620;2022-09-29T05:43:53;97594.00;;;7.90
69007;BMP180;56061;51.748;19.620;2022-09-29T05:46:22;97601.20;;;8.00
69007;BMP180;56061;51.748;19.620;2022-09-29T05:48:49;97598.20;;;8.10
69007;BMP180;56061;51.748;19.620;2022-09-29T05:51:21;97596.00;;;8.20
69007;BMP180;56061;51.748;19.620;2022-09-29T05:53:49;97599.20;;;8.20
69007;BMP180;56061;51.748;19.620;2022-09-29T05:56:20;97593.40;;;8.30
69007;BMP180;56061;51.748;19.620;2022-09-29T05:58:48;97596.00;;;8.40
69007;BMP180;56061;51.748;19.620;2022-09-29T06:01:24;97595.80;;;8.40
69007;BMP180;56061;51.748;19.620;2022-09-29T06:03:55;97598.40;;;8.40
69007;BMP180;56061;51.748;19.620;2022-09-29T06:06:25;97598.20;;;8.50
69007;BMP180;56061;51.748;19.620;2022-09-29T06:08:53;97601.40;;;8.50
69007;BMP180;56061;51.748;19.620;2022-09-29T06:11:28;97602.60;;;8.50
69007;BMP180;56061;51.748;19.620;2022-09-29T06:13:57;97607.60;;;8.50
69007;BMP180;56061;51.748;19.620;2022-09-29T06:16:27;97600.00;;;8.50
69007;BMP180;56061;51.748;19.620;2022-09-29T06:18:55;97605.60;;;8.50
69007;BMP180;56061;51.748;19.620;2022-09-29T06:21:25;97603.60;;;8.50
69007;BMP180;56061;51.748;19.620;2022-09-29T06:23:56;97604.40;;;8.60
69007;BMP180;56061;51.748;19.620;2022-09-29T06:26:24;97610.20;;;8.60
69007;BMP180;56061;51.748;19.620;2022-09-29T06:28:53;97610.60;;;8.70
69007;BMP180;56061;51.748;19.620;2022-09-29T06:31:24;97616.20;;;8.66
69007;BMP180;56061;51.748;19.620;2022-09-29T06:33:51;97620.80;;;8.64
69007;BMP180;56061;51.748;19.620;2022-09-29T06:36:24;97618.40;;;8.70
69007;BMP180;56061;51.748;19.620;2022-09-29T06:39:13;97622.40;;;8.70
69007;BMP180;56061;51.748;19.620;2022-09-29T06:41:40;97621.40;;;8.72
69007;BMP180;56061;51.748;19.620;2022-09-29T06:44:09;97622.40;;;8.84
69007;BMP180;56061;51.748;19.620;2022-09-29T06:46:36;97616.60;;;8.90
69007;BMP180;56061;51.748;19.620;2022-09-29T06:49:03;97614.00;;;9.00
69007;BMP180;56061;51.748;19.620;2022-09-29T06:51:29;97612.40;;;9.10
69007;BMP180;56061;51.748;19.620;2022-09-29T06:54:14;97612.00;;;9.10
69007;BMP180;56061;51.748;19.620;2022-09-29T06:56:41;97614.20;;;9.20
69007;BMP180;56061;51.748;19.620;2022-09-29T06:59:08;97618.20;;;9.20
69007;BMP180;56061;51.748;19.620;2022-09-29T07:01:34;97616.20;;;9.30
69007;BMP180;56061;51.748;19.620;2022-09-29T07:04:01;97618.40;;;9.40
69007;BMP180;56061;51.748;19.620;2022-09-29T07:06:29;97618.60;;;9.50
69007;BMP180;56061;51.748;19.620;2022-09-29T07:08:57;97625.40;;;9.50
69007;BMP180;56061;51.748;19.620;2022-09-29T07:11:25;97629.80;;;9.60
69007;BMP180;56061;51.748;19.620;2022-09-29T07:13:53;97636.00;;;9.60
69007;BMP180;56061;51.748;19.620;2022-09-29T07:16:21;97635.80;;;9.70
69007;BMP180;56061;51.748;19.620;2022-09-29T07:18:50;97628.00;;;9.80
69007;BMP180;56061;51.748;19.620;2022-09-29T07:21:18;97629.00;;;9.90
69007;BMP180;56061;51.748;19.620;2022-09-29T07:23:46;97634.80;;;10.00
69007;BMP180;56061;51.748;19.620;2022-09-29T07:26:14;97636.80;;;10.10
69007;BMP180;56061;51.748;19.620;2022-09-29T07:28:42;97634.20;;;10.16
69007;BMP180;56061;51.748;19.620;2022-09-29T07:31:17;97640.40;;;10.20
69007;BMP180;56061;51.748;19.620;2022-09-29T07:33:46;97642.20;;;10.30
69007;BMP180;56061;51.748;19.620;2022-09-29T07:36:16;97642.80;;;10.40
69007;BMP180;56061;51.748;19.620;2022-09-29T07:38:48;97645.00;;;10.50
69007;BMP180;56061;51.748;19.620;2022-09-29T07:41:18;97644.40;;;10.60
69007;BMP180;56061;51.748;19.620;2022-09-29T07:43:45;97648.20;;;10.80
69007;BMP180;56061;51.748;19.620;2022-09-29T07:46:12;97648.40;;;10.90
69007;BMP180;56061;51.748;19.620;2022-09-29T07:48:39;97648.00;;;11.02
69007;BMP180;56061;51.748;19.620;2022-09-29T07:51:11;97652.60;;;11.20
69007;BMP180;56061;51.748;19.620;2022-09-29T07:53:38;97653.40;;;11.30
69007;BMP180;56061;51.748;19.620;2022-09-29T07:56:08;97657.40;;;11.40
69007;BMP180;56061;51.748;19.620;2022-09-29T07:58:36;97661.40;;;11.50
69007;BMP180;56061;51.748;19.620;2022-09-29T08:01:06;97667.40;;;11.60
69007;BMP180;56061;51.748;19.620;2022-09-29T08:03:37;97670.40;;;11.66
69007;BMP180;56061;51.748;19.620;2022-09-29T08:06:06;97669.40;;;11.70
69007;BMP180;56061;51.748;19.620;2022-09-29T08:08:36;97674.20;;;11.72
69007;BMP180;56061;51.748;19.620;2022-09-29T08:11:15;97676.40;;;11.80
69007;BMP180;56061;51.748;19.620;2022-09-29T08:13:56;97674.40;;;11.82
69007;BMP180;56061;51.748;19.620;2022-09-29T08:16:23;97680.20;;;11.84
69007;BMP180;56061;51.748;19.620;2022-09-29T08:18:49;97684.60;;;11.80
69007;BMP180;56061;51.748;19.620;2022-09-29T08:21:16;97683.20;;;11.70
69007;BMP180;56061;51.748;19.620;2022-09-29T08:23:43;97679.60;;;11.64
69007;BMP180;56061;51.748;19.620;2022-09-29T08:26:13;97691.80;;;11.60
69007;BMP180;56061;51.748;19.620;2022-09-29T08:28:42;97686.60;;;11.50
69007;BMP180;56061;51.748;19.620;2022-09-29T08:31:16;97693.00;;;11.50
69007;BMP180;56061;51.748;19.620;2022-09-29T08:33:48;97694.00;;;11.40
69007;BMP180;56061;51.748;19.620;2022-09-29T08:36:19;97694.40;;;11.40
69007;BMP180;56061;51.748;19.620;2022-09-29T08:38:49;97698.00;;;11.30
69007;BMP180;56061;51.748;19.620;2022-09-29T08:47:13;97698.60;;;11.18
69007;BMP180;56061;51.748;19.620;2022-09-29T08:49:58;97701.40;;;11.20
69007;BMP180;56061;51.748;19.620;2022-09-29T08:52:30;97703.20;;;11.20
69007;BMP180;56061;51.748;19.620;2022-09-29T08:57:55;97705.80;;;11.10
69007;BMP180;56061;51.748;19.620;2022-09-29T09:00:41;97702.60;;;11.10
69007;BMP180;56061;51.748;19.620;2022-09-29T09:06:18;97712.80;;;11.00
69007;BMP180;56061;51.748;19.620;2022-09-29T09:12:00;97718.60;;;10.90
69007;BMP180;56061;51.748;19.620;2022-09-29T09:17:52;97717.20;;;10.78
69007;BMP180;56061;51.748;19.620;2022-09-29T09:20:34;97724.80;;;10.70
69007;BMP180;56061;51.748;19.620;2022-09-29T09:25:53;97724.60;;;10.60
69007;BMP180;56061;51.748;19.620;2022-09-29T09:28:41;97727.40;;;10.60
69007;BMP180;56061;51.748;19.620;2022-09-29T09:31:19;97729.20;;;10.64
69007;BMP180;56061;51.748;19.620;2022-09-29T09:33:58;97725.60;;;10.66
69007;BMP180;56061;51.748;19.620;2022-09-29T09:36:41;97732.40;;;10.70
69007;BMP180;56061;51.748;19.620;2022-09-29T09:39:18;97729.40;;;10.80
69007;BMP180;56061;51.748;19.620;2022-09-29T09:41:50;97729.40;;;10.72
69007;BMP180;56061;51.748;19.620;2022-09-29T09:44:25;97733.80;;;10.80
69007;BMP180;56061;51.748;19.620;2022-09-29T09:47:01;97740.20;;;10.90
69007;BMP180;56061;51.748;19.620;2022-09-29T09:49:36;97742.00;;;10.90
69007;BMP180;56061;51.748;19.620;2022-09-29T09:52:38;97736.00;;;11.00
69007;BMP180;56061;51.748;19.620;2022-09-29T09:55:16;97741.60;;;11.10
69007;BMP180;56061;51.748;19.620;2022-09-29T09:58:00;97746.80;;;11.20
69007;BMP180;56061;51.748;19.620;2022-09-29T10:00:41;97748.00;;;11.30
69007;BMP180;56061;51.748;19.620;2022-09-29T10:03:08;97749.80;;;11.34
69007;BMP180;56061;51.748;19.620;2022-09-29T10:05:40;97747.00;;;11.40
69007;BMP180;56061;51.748;19.620;2022-09-29T10:08:27;97751.80;;;11.54
69007;BMP180;56061;51.748;19.620;2022-09-29T10:10:57;97751.20;;;11.70
69007;BMP180;56061;51.748;19.620;2022-09-29T10:13:29;97753.00;;;11.88
69007;BMP180;56061;51.748;19.620;2022-09-29T10:18:42;97742.80;;;12.20
69007;BMP180;56061;51.748;19.620;2022-09-29T10:23:56;97746.20;;;12.50
69007;BMP180;56061;51.748;19.620;2022-09-29T10:26:31;97742.60;;;12.66
69007;BMP180;56061;51.748;19.620;2022-09-29T10:32:31;97742.40;;;13.12
69007;BMP180;56061;51.748;19.620;2022-09-29T10:36:03;97743.40;;;13.30
69007;BMP180;56061;51.748;19.620;2022-09-29T10:38:07;97743.20;;;13.40
69007;BMP180;56061;51.748;19.620;2022-09-29T10:40:35;97748.40;;;13.50
69007;BMP180;56061;51.748;19.620;2022-09-29T10:43:23;97751.40;;;13.60
69007;BMP180;56061;51.748;19.620;2022-09-29T10:45:50;97752.80;;;13.70
69007;BMP180;56061;51.748;19.620;2022-09-29T10:48:19;97747.20;;;13.80
69007;BMP180;56061;51.748;19.620;2022-09-29T10:50:53;97752.60;;;13.90
69007;BMP180;56061;51.748;19.620;2022-09-29T10:53:38;97755.80;;;14.00
69007;BMP180;56061;51.748;19.620;2022-09-29T10:56:18;97756.40;;;14.10
69007;BMP180;56061;51.748;19.620;2022-09-29T10:58:57;97754.40;;;14.18
69007;BMP180;56061;51.748;19.620;2022-09-29T11:01:34;97761.20;;;14.30
69007;BMP180;56061;51.748;19.620;2022-09-29T11:04:32;97761.20;;;14.40
69007;BMP180;56061;51.748;19.620;2022-09-29T11:07:11;97760.40;;;14.64
69007;BMP180;56061;51.748;19.620;2022-09-29T11:09:41;97760.20;;;14.80
69007;BMP180;56061;51.748;19.620;2022-09-29T11:12:34;97762.40;;;14.90
69007;BMP180;56061;51.748;19.620;2022-09-29T11:15:27;97759.40;;;15.00
69007;BMP180;56061;51.748;19.620;2022-09-29T11:17:55;97765.40;;;15.10
69007;BMP180;56061;51.748;19.620;2022-09-29T11:20:30;97775.80;;;15.10
69007;BMP180;56061;51.748;19.620;2022-09-29T11:23:18;97774.20;;;15.00
69007;BMP180;56061;51.748;19.620;2022-09-29T11:26:30;97776.20;;;14.90
69007;BMP180;56061;51.748;19.620;2022-09-29T11:32:20;97777.40;;;14.68
69007;BMP180;56061;51.748;19.620;2022-09-29T11:35:11;97774.00;;;14.60
69007;BMP180;56061;51.748;19.620;2022-09-29T11:44:55;97776.40;;;14.62
69007;BMP180;56061;51.748;19.620;2022-09-29T11:50:35;97776.80;;;14.80
69007;BMP180;56061;51.748;19.620;2022-09-29T11:53:26;97775.40;;;14.80
69007;BMP180;56061;51.748;19.620;2022-09-29T11:56:12;97778.40;;;14.80
69007;BMP180;56061;51.748;19.620;2022-09-29T12:02:07;97777.40;;;14.80
69007;BMP180;56061;51.748;19.620;2022-09-29T12:05:02;97777.80;;;14.80
69007;BMP180;56061;51.748;19.620;2022-09-29T12:14:17;97780.40;;;15.00
69007;BMP180;56061;51.748;19.620;2022-09-29T12:16:57;97789.20;;;14.90
69007;BMP180;56061;51.748;19.620;2022-09-29T12:19:29;97790.00;;;14.80
69007;BMP180;56061;51.748;19.620;2022-09-29T12:22:00;97787.40;;;14.80
69007;BMP180;56061;51.748;19.620;2022-09-29T12:24:41;97787.20;;;14.80
69007;BMP180;56061;51.748;19.620;2022-09-29T12:30:14;97794.20;;;14.70
69007;BMP180;56061;51.748;19.620;2022-09-29T12:35:51;97795.00;;;14.50
69007;BMP180;56061;51.748;19.620;2022-09-29T12:38:31;97795.20;;;14.40
69007;BMP180;56061;51.748;19.620;2022-09-29T12:41:15;97802.80;;;14.40
69007;BMP180;56061;51.748;19.620;2022-09-29T12:43:56;97800.20;;;14.34
69007;BMP180;56061;51.748;19.620;2022-09-29T12:46:31;97801.40;;;14.32
69007;BMP180;56061;51.748;19.620;2022-09-29T12:51:47;97809.40;;;14.30
69007;BMP180;56061;51.748;19.620;2022-09-29T12:54:38;97801.00;;;14.20
69007;BMP180;56061;51.748;19.620;2022-09-29T12:57:29;97802.80;;;14.20
69007;BMP180;56061;51.748;19.620;2022-09-29T13:00:04;97806.00;;;14.40
69007;BMP180;56061;51.748;19.620;2022-09-29T13:05:52;97807.20;;;14.50
69007;BMP180;56061;51.748;19.620;2022-09-29T13:17:21;97804.60;;;14.70
69007;BMP180;56061;51.748;19.620;2022-09-29T13:20:29;97807.20;;;14.70
69007;BMP180;56061;51.748;19.620;2022-09-29T13:26:41;97812.00;;;14.60
69007;BMP180;56061;51.748;19.620;2022-09-29T13:29:21;97815.40;;;14.50
69007;BMP180;56061;51.748;19.620;2022-09-29T13:31:53;97817.00;;;14.60
69007;BMP180;56061;51.748;19.620;2022-09-29T13:34:35;97818.00;;;14.70
69007;BMP180;56061;51.748;19.620;2022-09-29T13:39:43;97814.40;;;15.02
69007;BMP180;56061;51.748;19.620;2022-09-29T13:42:43;97817.40;;;15.28
69007;BMP180;56061;51.748;19.620;2022-09-29T13:47:55;97813.00;;;15.80
69007;BMP180;56061;51.748;19.620;2022-09-29T13:50:46;97820.60;;;16.10
69007;BMP180;56061;51.748;19.620;2022-09-29T13:58:33;97820.60;;;16.40
69007;BMP180;56061;51.748;19.620;2022-09-29T14:01:07;97824.80;;;16.40
69007;BMP180;56061;51.748;19.620;2022-09-29T14:03:38;97824.20;;;16.50
69007;BMP180;56061;51.748;19.620;2022-09-29T14:06:16;97827.80;;;16.60
69007;BMP180;56061;51.748;19.620;2022-09-29T14:09:15;97828.80;;;16.40
69007;BMP180;56061;51.748;19.620;2022-09-29T14:11:52;97827.80;;;16.40
69007;BMP180;56061;51.748;19.620;2022-09-29T14:14:29;97833.00;;;16.40
69007;BMP180;56061;51.748;19.620;2022-09-29T14:28:11;97838.40;;;16.52
69007;BMP180;56061;51.748;19.620;2022-09-29T14:30:45;97838.80;;;16.70
69007;BMP180;56061;51.748;19.620;2022-09-29T14:33:39;97837.60;;;16.90
69007;BMP180;56061;51.748;19.620;2022-09-29T14:36:13;97839.80;;;17.00
69007;BMP180;56061;51.748;19.620;2022-09-29T14:38:48;97844.80;;;17.14
69007;BMP180;56061;51.748;19.620;2022-09-29T14:41:43;97842.60;;;17.30
69007;BMP180;56061;51.748;19.620;2022-09-29T14:44:24;97840.40;;;17.40
69007;BMP180;56061;51.748;19.620;2022-09-29T14:56:52;97850.60;;;17.60
69007;BMP180;56061;51.748;19.620;2022-09-29T14:59:50;97853.20;;;17.50
69007;BMP180;56061;51.748;19.620;2022-09-29T15:02:28;97853.40;;;17.50
69007;BMP180;56061;51.748;19.620;2022-09-29T15:04:56;97868.20;;;17.40
69007;BMP180;56061;51.748;19.620;2022-09-29T15:07:26;97870.00;;;17.26
69007;BMP180;56061;51.748;19.620;2022-09-29T15:09:58;97877.80;;;16.98
69007;BMP180;56061;51.748;19.620;2022-09-29T15:12:29;97877.20;;;16.70
69007;BMP180;56061;51.748;19.620;2022-09-29T15:14:58;97888.80;;;16.48
69007;BMP180;56061;51.748;19.620;2022-09-29T15:17:57;97897.20;;;16.24
69007;BMP180;56061;51.748;19.620;2022-09-29T15:20:43;97906.80;;;16.00
69007;BMP180;56061;51.748;19.620;2022-09-29T15:23:43;97906.40;;;15.90
69007;BMP180;56061;51.748;19.620;2022-09-29T15:26:14;97912.80;;;15.80
69007;BMP180;56061;51.748;19.620;2022-09-29T15:28:43;97912.00;;;15.68
69007;BMP180;56061;51.748;19.620;2022-09-29T15:31:16;97914.40;;;15.52
69007;BMP180;56061;51.748;19.620;2022-09-29T15:33:44;97912.40;;;15.40
69007;BMP180;56061;51.748;19.620;2022-09-29T15:36:32;97915.60;;;15.30
69007;BMP180;56061;51.748;19.620;2022-09-29T15:39:22;97914.20;;;15.30
69007;BMP180;56061;51.748;19.620;2022-09-29T15:42:22;97923.80;;;15.28
69007;BMP180;56061;51.748;19.620;2022-09-29T15:44:59;97928.20;;;15.20
69007;BMP180;56061;51.748;19.620;2022-09-29T15:47:36;97936.40;;;15.20
69007;BMP180;56061;51.748;19.620;2022-09-29T15:50:21;97939.00;;;15.00
69007;BMP180;56061;51.748;19.620;2022-09-29T15:52:48;97950.00;;;14.90
69007;BMP180;56061;51.748;19.620;2022-09-29T15:55:23;97946.60;;;14.78
69007;BMP180;56061;51.748;19.620;2022-09-29T15:57:51;97947.60;;;14.60
69007;BMP180;56061;51.748;19.620;2022-09-29T16:03:14;97952.80;;;14.30
69007;BMP180;56061;51.748;19.620;2022-09-29T16:05:55;97953.40;;;14.10
69007;BMP180;56061;51.748;19.620;2022-09-29T16:08:27;97955.00;;;13.94
69007;BMP180;56061;51.748;19.620;2022-09-29T16:11:13;97950.80;;;13.90
69007;BMP180;56061;51.748;19.620;2022-09-29T16:13:50;97947.20;;;13.80
69007;BMP180;56061;51.748;19.620;2022-09-29T16:16:27;97944.00;;;13.70
69007;BMP180;56061;51.748;19.620;2022-09-29T16:19:02;97943.00;;;13.60
69007;BMP180;56061;51.748;19.620;2022-09-29T16:21:36;97948.60;;;13.40
69007;BMP180;56061;51.748;19.620;2022-09-29T16:24:17;97954.80;;;13.20
69007;BMP180;56061;51.748;19.620;2022-09-29T16:26:52;97958.60;;;13.00
69007;BMP180;56061;51.748;19.620;2022-09-29T16:31:47;97951.40;;;12.60
69007;BMP180;56061;51.748;19.620;2022-09-29T16:37:05;97957.00;;;12.20
69007;BMP180;56061;51.748;19.620;2022-09-29T16:39:46;97960.20;;;12.00
69007;BMP180;56061;51.748;19.620;2022-09-29T16:44:47;97969.60;;;11.64
69007;BMP180;56061;51.748;19.620;2022-09-29T16:47:23;97976.80;;;11.50
69007;BMP180;56061;51.748;19.620;2022-09-29T16:49:54;97983.40;;;11.30
69007;BMP180;56061;51.748;19.620;2022-09-29T16:52:28;97989.60;;;11.20
69007;BMP180;56061;51.748;19.620;2022-09-29T16:55:18;97988.20;;;11.00
69007;BMP180;56061;51.748;19.620;2022-09-29T17:00:28;97989.80;;;10.70